Alberton, Montana
Current Conditions -  °F | °C
As of 5:53 AM on Thursday 23 Oct 2014 (Local Time) from KMSO Reporting Station
Overcast Overcast  
Wind Chill: 48°   Ceiling: 6000
Heat Index: 48°   Visibility: 10mi
Dew Point: 40°   Wind: 0mph
Humidity: 74%   Direction: NA
Pressure: 29.88"   Gusts: NA
Location:  47°N, 114.47°W
Report Text: KMSO 231153Z 00000KT 10SM OVC060 09/04 A2988 RMK AO2 SLP114 T00890044 10128 20089 58007
Loading
Personal Weather Stations






























Interactive Weather Map
Tropical Storm Tracking
New forecast layout! Learn more

10-Day Weather Forecast

Advertisements
Track Severe Weather on mobile